createdAt,value
2022-10-13T00:00:53.938Z,2.47
2022-10-13T00:02:55.647Z,2.35
2022-10-13T00:04:57.366Z,2.30
2022-10-13T00:06:59.047Z,2.47
2022-10-13T00:09:00.711Z,2.30
2022-10-13T00:11:02.484Z,2.50
2022-10-13T00:13:04.824Z,2.40
2022-10-13T00:15:07.415Z,2.60
2022-10-13T00:17:09.163Z,2.30
2022-10-13T00:19:14.962Z,2.38
2022-10-13T00:21:19.123Z,2.28
2022-10-13T00:23:20.835Z,2.13
2022-10-13T00:25:22.546Z,2.70
2022-10-13T00:27:24.295Z,2.10
2022-10-13T00:29:25.998Z,2.30
2022-10-13T00:31:31.554Z,2.10
2022-10-13T00:33:33.259Z,2.05
2022-10-13T00:35:35.084Z,2.33
2022-10-13T00:37:36.759Z,2.20
2022-10-13T00:39:38.621Z,2.28
2022-10-13T00:41:40.296Z,2.20
2022-10-13T00:43:58.812Z,2.17
2022-10-13T00:46:00.508Z,2.33
2022-10-13T00:48:02.251Z,2.22
2022-10-13T00:50:05.124Z,2.30
2022-10-13T00:52:06.841Z,2.08
2022-10-13T00:54:09.668Z,2.30
2022-10-13T00:56:11.980Z,2.22
2022-10-13T00:58:15.760Z,2.30
2022-10-13T01:00:17.851Z,2.15
2022-10-13T01:02:19.978Z,1.90
2022-10-13T01:04:23.712Z,2.30
2022-10-13T01:06:25.430Z,2.03
2022-10-13T01:08:28.271Z,2.20
2022-10-13T01:10:35.262Z,1.80
2022-10-13T01:12:49.045Z,2.08
2022-10-13T01:15:01.538Z,2.13
2022-10-13T01:17:36.499Z,2.10
2022-10-13T01:20:05.526Z,2.40
2022-10-13T01:22:37.623Z,2.10
2022-10-13T01:24:47.710Z,1.92
2022-10-13T01:27:12.939Z,2.15
2022-10-13T01:29:29.201Z,2.20
2022-10-13T01:31:49.297Z,2.10
2022-10-13T01:33:59.702Z,2.10
2022-10-13T01:36:03.891Z,2.22
2022-10-13T01:38:14.355Z,2.20
2022-10-13T01:40:18.969Z,1.90
2022-10-13T01:42:42.938Z,2.15
2022-10-13T01:44:48.525Z,1.98
2022-10-13T01:46:50.503Z,1.90
2022-10-13T01:48:53.757Z,2.00
2022-10-13T01:50:56.381Z,2.13
2022-10-13T01:52:59.590Z,2.40
2022-10-13T01:55:08.847Z,2.20
2022-10-13T01:57:46.002Z,1.98
2022-10-13T01:59:47.706Z,1.80
2022-10-13T02:02:23.120Z,1.83
2022-10-13T02:04:37.698Z,2.30
2022-10-13T02:06:39.299Z,2.13
2022-10-13T02:08:52.246Z,2.13
2022-10-13T02:11:01.944Z,2.13
2022-10-13T02:13:04.465Z,2.25
2022-10-13T02:15:07.630Z,1.80
2022-10-13T02:17:09.386Z,2.20
2022-10-13T02:19:13.075Z,1.88
2022-10-13T02:21:14.731Z,1.90
2022-10-13T02:23:17.109Z,2.00
2022-10-13T02:25:18.860Z,2.15
2022-10-13T02:27:20.693Z,2.05
2022-10-13T02:29:22.386Z,1.92
2022-10-13T02:31:24.089Z,2.00
2022-10-13T02:33:25.790Z,2.15
2022-10-13T02:35:27.509Z,2.10
2022-10-13T02:37:29.249Z,2.05
2022-10-13T02:39:31.242Z,1.92
2022-10-13T02:41:32.928Z,2.20
2022-10-13T02:43:34.675Z,2.20
2022-10-13T02:45:36.362Z,1.90
2022-10-13T02:47:38.934Z,2.30
2022-10-13T02:49:40.603Z,2.10
2022-10-13T02:51:42.394Z,1.90
2022-10-13T02:53:44.103Z,1.90
2022-10-13T02:55:45.762Z,2.13
2022-10-13T02:57:47.465Z,2.17
2022-10-13T02:59:49.187Z,1.75
2022-10-13T03:01:50.864Z,2.30
2022-10-13T03:03:52.678Z,2.10
2022-10-13T03:05:54.395Z,1.90
2022-10-13T03:07:56.034Z,1.80
2022-10-13T03:09:57.906Z,2.05
2022-10-13T03:11:59.546Z,2.20
2022-10-13T03:14:01.217Z,2.25
2022-10-13T03:16:03.054Z,1.98
2022-10-13T03:18:04.839Z,2.05
2022-10-13T03:20:07.277Z,2.00
2022-10-13T03:22:08.964Z,2.05
2022-10-13T03:24:10.668Z,1.90
2022-10-13T03:26:12.394Z,2.00
2022-10-13T03:28:14.183Z,1.88
2022-10-13T03:30:15.969Z,2.10
2022-10-13T03:32:18.073Z,1.85
2022-10-13T03:34:20.099Z,1.90
2022-10-13T03:36:21.769Z,2.10
2022-10-13T03:38:23.546Z,2.25
2022-10-13T03:40:25.377Z,2.28
2022-10-13T03:42:27.131Z,2.03
2022-10-13T03:44:28.814Z,1.90
2022-10-13T03:46:30.749Z,2.22
2022-10-13T03:48:33.042Z,1.92
2022-10-13T03:50:34.800Z,1.85
2022-10-13T03:52:36.482Z,2.28
2022-10-13T03:54:38.125Z,2.05
2022-10-13T03:56:39.987Z,2.15
2022-10-13T03:58:41.704Z,2.00
2022-10-13T04:00:43.481Z,1.80
2022-10-13T04:02:45.196Z,2.10
2022-10-13T04:04:46.896Z,2.30
2022-10-13T04:06:48.557Z,2.33
2022-10-13T04:08:50.492Z,2.10
2022-10-13T04:11:01.315Z,2.10
2022-10-13T04:13:03.058Z,2.17
2022-10-13T04:15:05.151Z,1.77
2022-10-13T04:17:06.912Z,2.40
2022-10-13T04:19:11.000Z,2.10
2022-10-13T04:21:14.736Z,2.40
2022-10-13T04:23:16.448Z,2.20
2022-10-13T04:25:18.391Z,2.10
2022-10-13T04:27:20.137Z,2.13
2022-10-13T04:29:21.915Z,2.10
2022-10-13T04:31:24.158Z,2.35
2022-10-13T04:33:25.863Z,2.13
2022-10-13T04:35:27.576Z,2.10
2022-10-13T04:37:29.297Z,1.95
2022-10-13T04:39:31.069Z,2.15
2022-10-13T04:41:32.789Z,2.20
2022-10-13T04:43:34.565Z,2.17
2022-10-13T04:45:36.277Z,2.10
2022-10-13T04:47:38.001Z,2.00
2022-10-13T04:49:39.677Z,1.90
2022-10-13T04:51:41.342Z,2.00
2022-10-13T04:53:43.055Z,1.88
2022-10-13T04:55:44.771Z,1.80
2022-10-13T04:57:46.455Z,1.85
2022-10-13T04:59:48.181Z,2.22
2022-10-13T05:01:49.841Z,1.80
2022-10-13T05:03:55.858Z,2.00
2022-10-13T05:05:57.632Z,1.98
2022-10-13T05:07:59.330Z,1.75
2022-10-13T05:10:01.085Z,2.00
2022-10-13T05:12:02.815Z,1.70
2022-10-13T05:14:04.584Z,2.00
2022-10-13T05:16:09.869Z,2.08
2022-10-13T05:18:11.558Z,2.30
2022-10-13T05:20:13.359Z,2.10
2022-10-13T05:22:14.997Z,2.20
2022-10-13T05:24:16.777Z,2.00
2022-10-13T05:26:18.611Z,2.20
2022-10-13T05:28:20.344Z,2.20
2022-10-13T05:30:22.094Z,2.20
2022-10-13T05:32:23.793Z,2.40
2022-10-13T05:34:25.575Z,2.22
2022-10-13T05:36:29.337Z,2.38
2022-10-13T05:38:31.002Z,2.40
2022-10-13T05:40:32.760Z,2.08
2022-10-13T05:42:35.166Z,2.00
2022-10-13T05:44:36.941Z,2.20
2022-10-13T05:46:38.677Z,2.00
2022-10-13T05:48:40.352Z,2.25
2022-10-13T05:50:42.067Z,2.20
2022-10-13T05:52:43.776Z,2.25
2022-10-13T05:54:47.422Z,2.08
2022-10-13T05:56:57.544Z,2.30
2022-10-13T05:59:04.276Z,1.98
2022-10-13T06:01:07.200Z,2.20
2022-10-13T06:03:13.596Z,2.20
2022-10-13T06:05:16.913Z,2.10
2022-10-13T06:07:18.672Z,2.00
2022-10-13T06:09:20.287Z,2.30
2022-10-13T06:11:21.949Z,1.90
2022-10-13T06:13:23.680Z,1.90
2022-10-13T06:15:28.112Z,2.05
2022-10-13T06:17:30.069Z,2.03
2022-10-13T06:19:31.794Z,2.13
2022-10-13T06:21:36.503Z,1.80
2022-10-13T06:23:38.234Z,2.20
2022-10-13T06:25:47.638Z,1.80
2022-10-13T06:27:49.320Z,2.10
2022-10-13T06:29:51.049Z,2.30
2022-10-13T06:31:52.847Z,2.10
2022-10-13T06:33:54.650Z,1.83
2022-10-13T06:35:56.344Z,1.90
2022-10-13T06:37:58.053Z,2.35
2022-10-13T06:39:59.712Z,2.10
2022-10-13T06:42:01.667Z,2.00
2022-10-13T06:44:03.687Z,2.22
2022-10-13T06:46:05.502Z,2.38
2022-10-13T06:48:07.213Z,2.25
2022-10-13T06:50:09.478Z,2.28
2022-10-13T06:52:11.200Z,2.25
2022-10-13T06:54:12.870Z,1.92
2022-10-13T06:56:14.573Z,2.30
2022-10-13T06:58:16.224Z,1.92
2022-10-13T07:00:18.101Z,2.17
2022-10-13T07:02:19.932Z,2.00
2022-10-13T07:04:21.805Z,1.73
2022-10-13T07:06:23.533Z,2.20
2022-10-13T07:08:25.261Z,2.10
2022-10-13T07:10:27.001Z,2.13
2022-10-13T07:12:28.792Z,2.13
2022-10-13T07:14:30.490Z,2.22
2022-10-13T07:16:32.226Z,2.20
2022-10-13T07:18:33.838Z,2.10
2022-10-13T07:20:35.608Z,2.30
2022-10-13T07:22:37.242Z,2.10
2022-10-13T07:24:38.945Z,2.03
2022-10-13T07:26:40.650Z,2.20
2022-10-13T07:28:42.963Z,2.00
2022-10-13T07:30:44.807Z,2.20
2022-10-13T07:32:46.547Z,2.53
2022-10-13T07:34:48.315Z,2.20
2022-10-13T07:36:49.996Z,1.90
2022-10-13T07:38:51.725Z,2.30
2022-10-13T07:40:53.399Z,2.10
2022-10-13T07:42:56.694Z,1.80
2022-10-13T07:44:58.501Z,2.00
2022-10-13T07:47:00.181Z,1.88
2022-10-13T07:49:01.858Z,2.10
2022-10-13T07:51:07.362Z,1.80
2022-10-13T07:53:09.036Z,1.90
2022-10-13T07:55:10.911Z,2.15
2022-10-13T07:57:12.584Z,1.90
2022-10-13T07:59:14.341Z,2.00
2022-10-13T08:01:17.631Z,2.10
2022-10-13T08:03:19.474Z,1.70
2022-10-13T08:05:21.326Z,2.05
2022-10-13T08:07:23.352Z,2.05
2022-10-13T08:09:26.043Z,2.08
2022-10-13T08:11:27.842Z,2.08
2022-10-13T08:13:29.603Z,2.40
2022-10-13T08:15:31.270Z,1.98
2022-10-13T08:17:32.979Z,2.10
2022-10-13T08:19:34.697Z,2.30
2022-10-13T08:23:58.216Z,2.00
2022-10-13T08:25:59.910Z,2.00
2022-10-13T08:28:01.578Z,1.88
2022-10-13T08:30:03.550Z,1.90
2022-10-13T08:32:05.402Z,2.08
2022-10-13T08:34:07.278Z,2.00
2022-10-13T08:36:09.108Z,2.00
2022-10-13T08:38:10.804Z,1.90
2022-10-13T08:40:15.303Z,2.20
2022-10-13T08:42:21.536Z,2.00
2022-10-13T08:45:21.833Z,1.98
2022-10-13T08:47:49.839Z,2.05
2022-10-13T08:49:54.358Z,2.00
2022-10-13T08:51:59.798Z,1.90
2022-10-13T08:54:01.587Z,2.00
2022-10-13T08:56:07.186Z,1.98
2022-10-13T08:58:15.203Z,1.85
2022-10-13T09:00:17.312Z,2.22
2022-10-13T09:02:29.452Z,2.22
2022-10-13T09:04:32.641Z,1.77
2022-10-13T09:06:38.323Z,2.10
2022-10-13T09:08:52.381Z,2.13
2022-10-13T09:10:54.202Z,2.10
2022-10-13T09:12:55.967Z,1.90
2022-10-13T09:15:02.439Z,1.80
2022-10-13T09:17:24.467Z,1.80
2022-10-13T09:19:30.068Z,1.80
2022-10-13T09:21:31.735Z,1.75
2022-10-13T09:23:34.435Z,1.88
2022-10-13T09:25:46.836Z,1.77
2022-10-13T09:27:58.373Z,1.77
2022-10-13T09:30:02.085Z,1.90
2022-10-13T09:32:22.876Z,1.80
2022-10-13T09:34:25.292Z,1.77
2022-10-13T09:36:27.160Z,1.50
2022-10-13T09:38:29.134Z,1.75
2022-10-13T09:40:31.049Z,1.90
2022-10-13T09:42:32.833Z,1.73
2022-10-13T09:44:34.538Z,1.60
2022-10-13T09:46:44.982Z,1.60
2022-10-13T09:48:49.618Z,1.63
2022-10-13T09:50:52.855Z,1.45
2022-10-13T09:52:55.938Z,1.42
2022-10-13T09:55:00.625Z,1.70
2022-10-13T09:57:33.455Z,1.70
2022-10-13T09:59:41.367Z,1.80
2022-10-13T10:01:45.518Z,1.77
2022-10-13T10:03:47.303Z,1.52
2022-10-13T10:05:53.698Z,1.70
2022-10-13T10:07:58.975Z,1.60
2022-10-13T10:10:07.245Z,1.70
2022-10-13T10:12:10.150Z,1.80
2022-10-13T10:14:17.795Z,1.60
2022-10-13T10:16:31.555Z,1.60
2022-10-13T10:18:59.241Z,1.65
2022-10-13T10:21:08.700Z,1.60
2022-10-13T10:23:29.371Z,1.60
2022-10-13T10:25:42.888Z,1.70
2022-10-13T10:27:45.884Z,1.70
2022-10-13T10:29:51.794Z,1.50
2022-10-13T10:31:53.403Z,1.58
2022-10-13T10:34:13.609Z,1.60
2022-10-13T10:36:22.097Z,1.60
2022-10-13T10:38:30.643Z,1.90
2022-10-13T10:40:39.351Z,1.45
2022-10-13T10:42:51.850Z,1.70
2022-10-13T10:44:53.935Z,1.60
2022-10-13T10:46:56.522Z,1.63
2022-10-13T10:49:02.568Z,1.48
2022-10-13T10:51:06.630Z,1.70
2022-10-13T10:53:32.108Z,1.77
2022-10-13T10:55:43.991Z,1.60
2022-10-13T10:58:13.993Z,1.60
2022-10-13T11:00:24.772Z,1.40
2022-10-13T11:02:41.555Z,1.60
2022-10-13T11:04:49.467Z,1.77
2022-10-13T11:06:51.156Z,1.65
2022-10-13T11:08:52.887Z,1.75
2022-10-13T11:11:37.217Z,1.70
2022-10-13T11:13:50.473Z,1.50
2022-10-13T11:15:52.244Z,1.40
2022-10-13T11:17:54.022Z,1.50
2022-10-13T11:19:55.845Z,1.77
2022-10-13T11:21:57.524Z,1.58
2022-10-13T11:24:02.076Z,1.60
2022-10-13T11:26:25.754Z,1.52
2022-10-13T11:28:42.503Z,1.60
2022-10-13T11:30:46.151Z,1.60
2022-10-13T11:32:47.867Z,1.70
2022-10-13T11:35:04.535Z,1.60
2022-10-13T11:37:15.360Z,1.58
2022-10-13T11:39:25.664Z,1.60
2022-10-13T11:41:28.253Z,1.60
2022-10-13T11:43:35.333Z,1.52
2022-10-13T11:45:39.956Z,1.50
2022-10-13T11:48:00.073Z,1.48
2022-10-13T11:50:13.542Z,1.65
2022-10-13T11:52:40.861Z,1.50
2022-10-13T11:54:50.794Z,1.27
2022-10-13T11:56:54.288Z,1.70
2022-10-13T11:58:56.031Z,1.40
2022-10-13T12:01:01.106Z,1.85
2022-10-13T12:03:02.864Z,1.40
2022-10-13T12:05:24.130Z,1.77
2022-10-13T12:07:25.800Z,1.60
2022-10-13T12:09:27.625Z,1.55
2022-10-13T12:11:31.140Z,1.60
2022-10-13T12:13:33.303Z,1.50
2022-10-13T12:15:36.857Z,1.65
2022-10-13T12:17:38.575Z,1.60
2022-10-13T12:19:40.315Z,1.77
2022-10-13T12:21:59.008Z,1.70
2022-10-13T12:24:09.674Z,1.67
2022-10-13T12:26:23.931Z,1.63
2022-10-13T12:28:27.887Z,1.70
2022-10-13T12:30:31.403Z,1.70
2022-10-13T12:32:33.965Z,1.50
2022-10-13T12:34:35.722Z,1.50
2022-10-13T12:36:38.727Z,1.45
2022-10-13T12:38:45.537Z,1.50
2022-10-13T12:40:51.116Z,1.60
2022-10-13T12:42:52.824Z,1.70
2022-10-13T12:44:54.583Z,1.50
2022-10-13T12:46:59.921Z,1.70
2022-10-13T12:49:27.272Z,1.67
2022-10-13T12:51:29.026Z,1.27
2022-10-13T12:53:30.743Z,1.50
2022-10-13T12:55:32.486Z,1.63
2022-10-13T12:57:36.006Z,1.50
2022-10-13T12:59:39.150Z,1.52
2022-10-13T13:01:40.881Z,1.58
2022-10-13T13:03:42.853Z,1.60
2022-10-13T13:05:49.256Z,1.70
2022-10-13T13:07:53.534Z,1.77
2022-10-13T13:10:15.554Z,1.50
2022-10-13T13:12:22.608Z,1.60
2022-10-13T13:14:46.877Z,1.50
2022-10-13T13:17:10.356Z,1.33
2022-10-13T13:19:22.072Z,1.55
2022-10-13T13:21:23.797Z,1.60
2022-10-13T13:23:25.494Z,1.48
2022-10-13T13:25:27.169Z,1.80
2022-10-13T13:27:37.480Z,1.40
2022-10-13T13:29:39.229Z,1.58
2022-10-13T13:31:40.992Z,1.33
2022-10-13T13:33:42.690Z,1.63
2022-10-13T13:35:44.381Z,1.60
2022-10-13T13:37:47.814Z,1.88
2022-10-13T13:39:49.721Z,1.60
2022-10-13T13:41:51.401Z,1.83
2022-10-13T13:43:54.590Z,1.88
2022-10-13T13:45:56.352Z,1.65
2022-10-13T13:48:00.705Z,1.55
2022-10-13T13:50:02.870Z,1.58
2022-10-13T13:52:05.079Z,1.80
2022-10-13T13:54:06.981Z,1.60
2022-10-13T13:56:16.346Z,1.65
2022-10-13T13:58:18.021Z,1.35
2022-10-13T14:00:19.958Z,1.50
2022-10-13T14:02:21.866Z,1.70
2022-10-13T14:04:23.563Z,1.40
2022-10-13T14:06:25.326Z,1.42
2022-10-13T14:08:29.906Z,1.70
2022-10-13T14:10:31.965Z,1.75
2022-10-13T14:12:33.813Z,1.40
2022-10-13T14:14:35.649Z,1.40
2022-10-13T14:16:37.337Z,1.50
2022-10-13T14:18:39.088Z,1.40
2022-10-13T14:20:41.255Z,1.80
2022-10-13T14:22:42.983Z,1.52
2022-10-13T14:24:44.704Z,1.50
2022-10-13T14:26:46.538Z,1.50
2022-10-13T14:28:48.339Z,1.73
2022-10-13T14:30:50.175Z,1.50
2022-10-13T14:32:52.107Z,1.60
2022-10-13T14:34:53.887Z,1.58
2022-10-13T14:36:55.708Z,1.50
2022-10-13T14:38:57.644Z,1.67
2022-10-13T14:41:03.800Z,1.50
2022-10-13T14:43:05.719Z,1.83
2022-10-13T14:45:07.874Z,1.35
2022-10-13T14:47:09.573Z,1.55
2022-10-13T14:49:11.694Z,1.30
2022-10-13T14:51:13.438Z,1.83
2022-10-13T14:53:15.252Z,1.50
2022-10-13T14:55:17.594Z,1.58
2022-10-13T14:57:19.786Z,1.33
2022-10-13T14:59:21.747Z,1.40
2022-10-13T15:01:23.520Z,1.40
2022-10-13T15:03:25.506Z,1.17
2022-10-13T15:05:27.391Z,1.63
2022-10-13T15:07:29.189Z,1.55
2022-10-13T15:09:45.006Z,1.25
2022-10-13T15:11:53.160Z,1.30
2022-10-13T15:13:54.987Z,1.30
2022-10-13T15:15:57.147Z,1.50
2022-10-13T15:17:58.920Z,1.42
2022-10-13T15:20:00.622Z,1.40
2022-10-13T15:22:02.300Z,1.50
2022-10-13T15:24:04.182Z,1.35
2022-10-13T15:26:06.185Z,1.67
2022-10-13T15:28:08.056Z,1.52
2022-10-13T15:30:10.712Z,1.40
2022-10-13T15:32:17.023Z,1.63
2022-10-13T15:34:18.703Z,1.27
2022-10-13T15:36:21.302Z,1.60
2022-10-13T15:38:23.126Z,1.30
2022-10-13T15:40:25.041Z,1.50
2022-10-13T15:42:26.849Z,1.70
2022-10-13T15:44:30.874Z,1.40
2022-10-13T15:46:35.905Z,1.48
2022-10-13T15:48:38.834Z,1.45
2022-10-13T15:50:40.571Z,1.80
2022-10-13T15:52:42.411Z,1.45
2022-10-13T15:54:44.260Z,1.60
2022-10-13T15:56:45.969Z,1.30
2022-10-13T15:58:48.452Z,1.52
2022-10-13T16:00:50.172Z,1.42
2022-10-13T16:02:52.041Z,1.67
2022-10-13T16:04:53.886Z,1.63
2022-10-13T16:06:55.651Z,1.73
2022-10-13T16:08:57.446Z,1.50
2022-10-13T16:10:59.229Z,1.40
2022-10-13T16:13:00.901Z,1.75
2022-10-13T16:15:02.642Z,1.75
2022-10-13T16:17:04.589Z,1.85
2022-10-13T16:19:06.456Z,1.40
2022-10-13T16:21:18.501Z,1.50
2022-10-13T16:23:20.816Z,1.50
2022-10-13T16:25:22.433Z,1.35
2022-10-13T16:27:24.286Z,1.60
2022-10-13T16:29:26.401Z,1.60
2022-10-13T16:31:28.174Z,1.85
2022-10-13T16:33:29.905Z,1.60
2022-10-13T16:35:31.672Z,1.70
2022-10-13T16:37:33.356Z,1.70
2022-10-13T16:39:38.645Z,1.70
2022-10-13T16:41:43.025Z,1.60
2022-10-13T16:43:44.964Z,1.45
2022-10-13T16:45:59.997Z,1.50
2022-10-13T16:48:02.163Z,1.58
2022-10-13T16:50:04.482Z,1.70
2022-10-13T16:52:06.171Z,1.70
2022-10-13T16:54:08.772Z,1.50
2022-10-13T16:56:10.485Z,1.90
2022-10-13T16:58:12.359Z,1.60
2022-10-13T17:00:14.863Z,1.60
2022-10-13T17:02:17.897Z,1.83
2022-10-13T17:04:22.164Z,1.75
2022-10-13T17:06:25.478Z,1.63
2022-10-13T17:08:27.229Z,1.95
2022-10-13T17:10:29.005Z,1.90
2022-10-13T17:12:30.752Z,1.92
2022-10-13T17:14:32.522Z,2.10
2022-10-13T17:16:35.611Z,1.92
2022-10-13T17:18:37.483Z,1.92
2022-10-13T17:20:40.337Z,2.00
2022-10-13T17:22:42.072Z,2.00
2022-10-13T17:24:43.759Z,2.22
2022-10-13T17:26:45.497Z,2.17
2022-10-13T17:28:47.265Z,2.10
2022-10-13T17:31:02.936Z,2.20
2022-10-13T17:33:04.760Z,2.10
2022-10-13T17:35:06.755Z,2.30
2022-10-13T17:37:08.531Z,2.55
2022-10-13T17:39:11.215Z,2.40
2022-10-13T17:41:12.954Z,2.22
2022-10-13T17:43:14.781Z,2.40
2022-10-13T17:45:17.183Z,2.30
2022-10-13T17:47:20.217Z,2.47
2022-10-13T17:49:22.118Z,3.13
2022-10-13T17:51:23.947Z,2.50
2022-10-13T17:53:25.773Z,2.58
2022-10-13T17:55:27.615Z,2.40
2022-10-13T17:57:38.908Z,2.50
2022-10-13T17:59:40.660Z,2.30
2022-10-13T18:01:43.014Z,2.28
2022-10-13T18:03:52.561Z,2.50
2022-10-13T18:05:54.452Z,2.95
2022-10-13T18:07:59.271Z,2.65
2022-10-13T18:10:01.128Z,2.47
2022-10-13T18:12:02.907Z,2.72
2022-10-13T18:14:04.978Z,2.45
2022-10-13T18:16:08.563Z,2.60
2022-10-13T18:18:13.688Z,2.83
2022-10-13T18:20:15.503Z,2.67
2022-10-13T18:22:17.761Z,2.58
2022-10-13T18:24:20.389Z,2.47
2022-10-13T18:26:22.642Z,2.53
2022-10-13T18:28:24.349Z,2.70
2022-10-13T18:30:26.335Z,2.80
2022-10-13T18:32:27.973Z,3.03
2022-10-13T18:34:29.768Z,3.05
2022-10-13T18:36:35.237Z,2.67
2022-10-13T18:38:37.131Z,2.80
2022-10-13T18:40:38.869Z,3.17
2022-10-13T18:42:43.396Z,2.83
2022-10-13T18:44:48.358Z,2.80
2022-10-13T18:46:50.979Z,2.67
2022-10-13T18:48:53.275Z,2.60
2022-10-13T18:50:56.337Z,2.97
2022-10-13T18:52:58.041Z,3.30
2022-10-13T18:54:59.938Z,2.78
2022-10-13T18:57:01.803Z,2.60
2022-10-13T18:59:04.218Z,2.67
2022-10-13T19:01:08.305Z,2.60
2022-10-13T19:03:11.605Z,2.95
2022-10-13T19:05:13.319Z,2.88
2022-10-13T19:07:14.928Z,3.17
2022-10-13T19:09:16.794Z,2.90
2022-10-13T19:11:20.184Z,2.75
2022-10-13T19:13:21.868Z,2.60
2022-10-13T19:15:23.576Z,2.60
2022-10-13T19:17:25.313Z,2.85
2022-10-13T19:19:27.000Z,3.00
2022-10-13T19:21:28.806Z,2.78
2022-10-13T19:23:30.727Z,2.97
2022-10-13T19:25:32.575Z,3.00
2022-10-13T19:27:34.269Z,2.70
2022-10-13T19:29:36.019Z,3.17
2022-10-13T19:31:38.172Z,2.95
2022-10-13T19:33:44.342Z,2.80
2022-10-13T19:35:48.753Z,3.20
2022-10-13T19:37:50.469Z,2.88
2022-10-13T19:39:52.175Z,2.97
2022-10-13T19:41:55.224Z,3.00
2022-10-13T19:43:57.017Z,2.92
2022-10-13T19:45:59.854Z,3.03
2022-10-13T19:48:02.056Z,2.95
2022-10-13T19:50:04.269Z,2.85
2022-10-13T19:52:05.969Z,2.78
2022-10-13T19:54:08.197Z,3.15
2022-10-13T19:56:21.638Z,3.00
2022-10-13T19:58:23.422Z,2.92
2022-10-13T20:00:25.158Z,3.10
2022-10-13T20:02:27.022Z,3.15
2022-10-13T20:04:28.784Z,2.85
2022-10-13T20:06:30.522Z,3.05
2022-10-13T20:08:32.276Z,3.10
2022-10-13T20:10:34.275Z,3.03
2022-10-13T20:12:35.995Z,2.75
2022-10-13T20:14:38.430Z,2.97
2022-10-13T20:16:40.135Z,3.05
2022-10-13T20:18:41.992Z,2.83
2022-10-13T20:20:43.642Z,2.75
2022-10-13T20:22:45.345Z,3.00
2022-10-13T20:24:47.055Z,2.65
2022-10-13T20:26:48.995Z,2.70
2022-10-13T20:28:51.379Z,2.90
2022-10-13T20:30:53.151Z,2.83
2022-10-13T20:32:56.197Z,2.55
2022-10-13T20:34:57.952Z,2.78
2022-10-13T20:36:59.623Z,2.90
2022-10-13T20:39:01.288Z,2.70
2022-10-13T20:41:17.146Z,2.50
2022-10-13T20:43:23.468Z,2.40
2022-10-13T20:45:27.414Z,3.13
2022-10-13T20:47:29.178Z,2.72
2022-10-13T20:49:30.909Z,2.88
2022-10-13T20:51:32.658Z,2.80
2022-10-13T20:53:35.017Z,2.75
2022-10-13T20:55:41.624Z,2.53
2022-10-13T20:57:43.635Z,3.13
2022-10-13T20:59:45.311Z,2.83
2022-10-13T21:01:47.092Z,2.83
2022-10-13T21:03:55.156Z,2.92
2022-10-13T21:05:56.934Z,2.80
2022-10-13T21:07:58.654Z,2.67
2022-10-13T21:10:00.286Z,2.67
2022-10-13T21:12:02.103Z,2.80
2022-10-13T21:14:03.814Z,2.55
2022-10-13T21:16:10.459Z,2.80
2022-10-13T21:18:12.322Z,2.85
2022-10-13T21:20:14.067Z,2.65
2022-10-13T21:22:15.810Z,3.13
2022-10-13T21:24:17.573Z,3.00
2022-10-13T21:26:21.956Z,3.10
2022-10-13T21:28:24.125Z,3.03
2022-10-13T21:30:25.867Z,3.08
2022-10-13T21:32:29.990Z,2.58
2022-10-13T21:34:31.705Z,3.03
2022-10-13T21:36:33.537Z,2.92
2022-10-13T21:38:35.231Z,2.80
2022-10-13T21:40:37.971Z,3.20
2022-10-13T21:42:39.848Z,3.13
2022-10-13T21:44:41.693Z,2.90
2022-10-13T21:46:43.419Z,3.17
2022-10-13T21:48:45.883Z,2.97
2022-10-13T21:50:47.579Z,2.83
2022-10-13T21:52:49.215Z,3.20
2022-10-13T21:54:51.038Z,3.00
2022-10-13T21:56:52.751Z,3.42
2022-10-13T21:58:54.807Z,3.22
2022-10-13T22:01:00.071Z,3.38
2022-10-13T22:03:01.850Z,3.13
2022-10-13T22:05:03.786Z,3.30
2022-10-13T22:07:05.607Z,3.60
2022-10-13T22:09:07.391Z,3.70
2022-10-13T22:11:10.370Z,3.40
2022-10-13T22:13:12.100Z,3.40
2022-10-13T22:15:13.754Z,3.53
2022-10-13T22:17:15.534Z,3.60
2022-10-13T22:19:18.240Z,3.50
2022-10-13T22:21:21.946Z,3.63
2022-10-13T22:23:23.570Z,3.85
2022-10-13T22:25:25.405Z,3.40
2022-10-13T22:27:27.158Z,3.13
2022-10-13T22:29:28.924Z,3.55
2022-10-13T22:31:30.837Z,3.60
2022-10-13T22:33:34.090Z,3.70
2022-10-13T22:35:35.802Z,3.45
2022-10-13T22:37:37.517Z,3.38
2022-10-13T22:39:39.266Z,3.50
2022-10-13T22:41:40.980Z,3.88
2022-10-13T22:43:42.841Z,3.40
2022-10-13T22:45:51.299Z,3.75
2022-10-13T22:47:52.982Z,3.30
2022-10-13T22:49:54.690Z,3.50
2022-10-13T22:51:56.409Z,3.63
2022-10-13T22:53:58.304Z,3.60
2022-10-13T22:56:00.464Z,3.40
2022-10-13T22:58:02.177Z,3.20
2022-10-13T23:00:04.955Z,3.90
2022-10-13T23:02:06.653Z,3.90
2022-10-13T23:04:08.353Z,3.33
2022-10-13T23:06:13.482Z,3.47
2022-10-13T23:08:15.126Z,4.00
2022-10-13T23:10:17.039Z,3.40
2022-10-13T23:12:18.805Z,3.60
2022-10-13T23:14:20.557Z,3.95
2022-10-13T23:16:23.929Z,3.38
2022-10-13T23:18:25.662Z,3.58
2022-10-13T23:20:29.236Z,3.53
2022-10-13T23:22:30.933Z,3.70
2022-10-13T23:24:32.737Z,3.80
2022-10-13T23:26:34.628Z,3.72
2022-10-13T23:28:36.464Z,3.97
2022-10-13T23:30:38.286Z,3.95
2022-10-13T23:32:40.047Z,3.58
2022-10-13T23:34:41.707Z,3.20
2022-10-13T23:36:43.548Z,3.53
2022-10-13T23:38:45.199Z,3.90
2022-10-13T23:40:46.845Z,3.47
2022-10-13T23:42:48.540Z,3.30
2022-10-13T23:44:50.289Z,3.47
2022-10-13T23:46:51.980Z,3.60
2022-10-13T23:48:53.731Z,3.33
2022-10-13T23:50:55.464Z,3.60
2022-10-13T23:52:57.209Z,3.65
2022-10-13T23:54:58.928Z,3.30
2022-10-13T23:57:00.719Z,3.70
2022-10-13T23:59:02.436Z,3.80
